Osgood, IN

2:12 PM EDT on May 04, 2015 (GMT -0400)
Cincinnati-Northern KY International | | Change Station
CLOSE
Current Station
Airport
Location: Covington,
Elevation: 876 ft
Nearby Weather Stations

Elev 876 ft 39.04 °N, 84.67 °W | Updated 20 minutes ago

Mostly Cloudy
Mostly Cloudy
79 °F
Feels Like 79 °F
N
14
Wind Variable Wind from SSW
Gusts 20 mph

Today
High -- | Low -- °F
--% Chance of Precip.
Yesterday
High -- | Low -- °F
Precip. -- in
6:39 AM 8:36 PM
Full, 100% visible
Pressure 30.16 in
Visibility 10.0 miles
Clouds Few 6500 ft
Scattered Clouds 20000 ft
Mostly Cloudy 25000 ft
Dew Point 54 °F
Humidity 42%
Rainfall 0.00 in
Snow Depth Not available.
UV 6 out of 12
Pollen 10.50 out of 12
Air Quality Not available.
Flu Activity Local Activity
METAR KCVG 041752Z 21012G17KT 10SM FEW065 SCT200 BKN250 26/12 A3018 RMK AO2 SLP213 T02610122 10267 20156 58005

More Conditions Fewer Conditions

Pressure 30.16 in
Visibility 10.0 miles
Clouds Few 6500 ft
Scattered Clouds 20000 ft
Mostly Cloudy 25000 ft
Dew Point 54 °F
Humidity 42%
Rainfall 0.00 in
Snow Depth Not available.
UV 6 out of 12
Pollen 10.50 out of 12
Air Quality Not available.
Flu Activity Local Activity
METAR KCVG 041752Z 21012G17KT 10SM FEW065 SCT200 BKN250 26/12 A3018 RMK AO2 SLP213 T02610122 10267 20156 58005

More Conditions Fewer Conditions

Nepal has a long way to go to dig out and rebuild from a devastating earthquake. We have teamed up with several charities and organizations to make contributing to the relief effort as easy as possible.
How you can help: Portlight Strategies | Red Cross

10-Day Weather Forecast

Almanac

Astronomy

May. 04, 2015 Rise Set
Actual Time
Civil Twilight
Nautical Twilight
Astronomical Twilight
Moon
Length of Visible Light
Length of Day
Tomorrow will be .
, % of the Moon is Illuminated

Today's Extremes

State Highs State Lows

Community

WunderPhotos

Upload Photos

1,818,663 photos uploaded!

WunderBlogs® & News

Nearby

Air Quality

  Air Quality AQ Index Pollutant
Not available.

Snow Depth

Station Depth Elevation

Earthquake Activity

City Distance Mag. Time & Date
Minimum magnitude displayed is 2.5.

Coastal Water Temperatures

Place Temperature

Stations

Nearby Weather Stations

Station Location Temp. Windchill Dew Point Humidity Wind Precip. Elev Updated Type